Time;durP1;ratioP1;P1;durP2;ratioP2;P2;SDS_P1;SDS_P2;PMS_P1;PMS_P2;Temp;Humidity;BMP_temperature;BMP_pressure;BME280_temperature;BME280_humidity;BME280_pressure;Samples;Min_cycle;Max_cycle;Signal;HPM_P1;HPM_P2
2022/03/21 00:01:02;;;;;;;93.60;44.43;;;9.40;96.60;;;;;;5041922;28;20452;-69
2022/03/21 00:03:29;;;;;;;212.07;91.33;;;9.40;96.60;;;;;;5021996;28;20479;-73
2022/03/21 00:05:56;;;;;;;105.30;49.93;;;9.40;96.70;;;;;;5025632;28;20451;-69
2022/03/21 00:08:25;;;;;;;51.50;27.60;;;9.30;96.60;;;;;;5050644;28;21026;-70
2022/03/21 00:10:52;;;;;;;93.50;39.93;;;9.30;96.70;;;;;;5034553;28;20447;-68
2022/03/21 00:13:19;;;;;;;169.50;77.60;;;9.20;96.60;;;;;;5023669;28;20479;-69
2022/03/21 00:15:46;;;;;;;164.00;81.63;;;9.10;96.60;;;;;;5030496;28;20505;-68
2022/03/21 00:18:15;;;;;;;123.33;58.43;;;9.20;96.80;;;;;;5026637;28;20493;-71
2022/03/21 00:20:42;;;;;;;102.63;50.97;;;9.00;96.50;;;;;;5030656;28;20495;-70
2022/03/21 00:23:08;;;;;;;56.53;34.27;;;8.90;96.80;;;;;;5034318;28;20475;-69
2022/03/21 00:25:34;;;;;;;39.33;24.63;;;9.00;96.40;;;;;;5038389;28;20456;-70
2022/03/21 00:28:00;;;;;;;42.53;24.83;;;8.90;96.50;;;;;;5035407;28;20493;-70
2022/03/21 00:30:27;;;;;;;36.27;22.57;;;8.80;96.60;;;;;;5046356;28;20546;-70
2022/03/21 00:32:53;;;;;;;43.77;24.70;;;8.80;96.70;;;;;;5018087;28;20901;-72
2022/03/21 00:35:20;;;;;;;36.70;22.17;;;8.90;96.60;;;;;;5049628;28;20975;-69
2022/03/21 00:37:46;;;;;;;31.00;16.80;;;8.90;96.60;;;;;;5010751;28;20545;-69
2022/03/21 00:40:14;;;;;;;21.50;12.43;;;8.90;96.70;;;;;;5034005;28;20889;-69
2022/03/21 00:42:41;;;;;;;25.80;15.10;;;8.80;96.60;;;;;;5029042;28;20478;-71
2022/03/21 00:45:10;;;;;;;24.40;14.80;;;8.80;96.70;;;;;;5030042;28;20470;-70
2022/03/21 00:47:37;;;;;;;25.80;14.10;;;8.90;96.70;;;;;;5006449;28;20846;-70
2022/03/21 00:50:07;;;;;;;28.97;16.27;;;8.80;96.30;;;;;;5045462;28;20973;-69
2022/03/21 00:52:42;;;;;;;26.93;14.57;;;8.80;96.30;;;;;;5026830;28;20498;-68
2022/03/21 00:55:09;;;;;;;28.50;12.40;;;8.80;96.70;;;;;;5044421;28;20475;-69
2022/03/21 00:57:36;;;;;;;23.47;13.07;;;8.70;96.40;;;;;;5012036;28;20514;-72
2022/03/21 01:00:08;;;;;;;26.80;13.10;;;8.70;96.70;;;;;;5031013;28;20490;-72
2022/03/21 01:02:35;;;;;;;24.67;14.43;;;8.70;96.40;;;;;;5012504;28;20801;-69
2022/03/21 01:05:01;;;;;;;25.73;14.17;;;8.70;96.40;;;;;;5039125;28;20450;-69
2022/03/21 01:07:26;;;;;;;26.57;14.20;;;8.70;96.50;;;;;;5046039;28;20455;-69
2022/03/21 01:09:52;;;;;;;33.00;16.30;;;8.60;96.20;;;;;;5028439;28;20220;-69
2022/03/21 01:12:18;;;;;;;28.90;16.97;;;8.60;96.30;;;;;;5027854;28;20225;-70
2022/03/21 01:14:43;;;;;;;36.17;17.83;;;8.60;96.20;;;;;;5034453;28;20295;-71
2022/03/21 01:17:09;;;;;;;39.40;20.43;;;8.50;96.00;;;;;;5039442;28;20219;-68
2022/03/21 01:19:35;;;;;;;31.73;18.17;;;8.50;96.10;;;;;;5030623;28;20221;-69
2022/03/21 01:22:00;;;;;;;34.57;17.33;;;8.40;96.00;;;;;;5028862;28;20316;-69
2022/03/21 01:24:26;;;;;;;36.30;17.27;;;8.40;96.20;;;;;;5005577;28;20225;-71
2022/03/21 01:26:52;;;;;;;36.63;17.70;;;8.40;96.20;;;;;;5019519;28;20229;-69
2022/03/21 01:29:18;;;;;;;29.33;17.37;;;8.30;96.10;;;;;;5007909;28;20221;-70
2022/03/21 01:31:43;;;;;;;45.37;17.97;;;8.30;96.10;;;;;;5037404;28;20454;-68
2022/03/21 01:34:09;;;;;;;26.30;13.83;;;8.30;96.10;;;;;;5020637;28;20220;-68
2022/03/21 01:36:35;;;;;;;23.27;12.73;;;8.30;95.90;;;;;;5025559;28;20503;-71
2022/03/21 01:39:00;;;;;;;32.97;13.43;;;8.30;96.00;;;;;;5027150;28;20303;-68
2022/03/21 01:41:26;;;;;;;34.40;16.80;;;8.30;95.90;;;;;;5026078;28;20225;-69
2022/03/21 01:44:03;;;;;;;39.27;19.40;;;8.30;95.90;;;;;;5041736;28;20250;-70
2022/03/21 01:46:30;;;;;;;37.67;18.87;;;8.20;95.90;;;;;;5021520;28;20220;-70
2022/03/21 01:48:56;;;;;;;36.67;18.60;;;8.20;95.90;;;;;;5033442;28;20482;-73
2022/03/21 01:51:23;;;;;;;37.07;19.90;;;8.20;95.80;;;;;;5045717;28;20512;-73
2022/03/21 01:56:34;;;;;;;35.83;17.20;;;8.20;96.00;;;;;;5032159;28;20459;-69
2022/03/21 01:59:01;;;;;;;44.03;20.57;;;8.20;96.10;;;;;;5041237;28;20982;-70
2022/03/21 02:01:27;;;;;;;42.93;16.90;;;8.10;96.00;;;;;;5035432;28;20483;-69
2022/03/21 02:03:52;;;;;;;33.67;16.40;;;8.10;95.80;;;;;;5034821;28;20463;-68
2022/03/21 02:06:18;;;;;;;29.40;14.50;;;8.00;95.80;;;;;;5043602;28;20235;-68
2022/03/21 02:08:44;;;;;;;28.27;13.47;;;7.90;95.90;;;;;;5035931;28;20212;-71
2022/03/21 02:11:10;;;;;;;35.00;14.57;;;7.90;96.00;;;;;;5035243;28;20695;-69
2022/03/21 02:13:36;;;;;;;42.43;15.90;;;7.90;96.00;;;;;;5027734;28;20569;-72
2022/03/21 02:16:04;;;;;;;38.37;14.43;;;7.90;95.90;;;;;;5035342;28;20225;-73
2022/03/21 02:18:32;;;;;;;36.80;13.50;;;7.90;95.90;;;;;;5047058;28;20446;-69
2022/03/21 02:21:00;;;;;;;38.00;15.90;;;7.90;95.90;;;;;;5031452;28;20444;-69
2022/03/21 02:23:42;;;;;;;45.17;16.90;;;7.90;95.90;;;;;;5036147;28;20545;-72
2022/03/21 02:26:10;;;;;;;31.60;15.30;;;7.90;95.90;;;;;;5027051;28;21018;-69
2022/03/21 02:28:36;;;;;;;24.60;12.57;;;7.90;96.00;;;;;;5041391;28;20455;-68
2022/03/21 02:31:03;;;;;;;36.10;14.30;;;7.80;95.90;;;;;;5030650;28;20849;-69
2022/03/21 02:33:29;;;;;;;27.93;12.93;;;7.80;95.80;;;;;;5032541;28;20451;-70
2022/03/21 02:35:57;;;;;;;22.00;13.13;;;7.80;95.80;;;;;;5043018;28;20477;-71
2022/03/21 02:38:25;;;;;;;29.63;14.20;;;7.80;95.90;;;;;;5035089;28;20220;-69
2022/03/21 02:40:50;;;;;;;28.30;13.43;;;7.70;95.80;;;;;;5031642;28;20498;-69
2022/03/21 02:43:16;;;;;;;28.67;14.60;;;7.70;95.90;;;;;;5039071;28;20902;-69
2022/03/21 02:45:42;;;;;;;23.77;12.20;;;7.40;95.50;;;;;;5043893;28;20280;-70
2022/03/21 02:48:08;;;;;;;22.50;12.30;;;7.50;95.90;;;;;;5032047;28;20212;-72
2022/03/21 02:50:40;;;;;;;25.43;12.20;;;7.50;95.90;;;;;;5046254;28;20223;-71
2022/03/21 02:53:09;;;;;;;26.80;13.50;;;7.60;95.90;;;;;;5020939;28;20471;-71
2022/03/21 02:55:34;;;;;;;20.40;10.87;;;7.50;95.70;;;;;;5024410;28;20458;-70
2022/03/21 02:58:00;;;;;;;22.83;11.30;;;7.50;95.80;;;;;;5049608;28;20448;-71
2022/03/21 03:00:26;;;;;;;21.87;10.33;;;7.50;95.70;;;;;;5025418;28;20208;-69
2022/03/21 03:02:52;;;;;;;24.00;11.97;;;7.40;95.60;;;;;;5030262;28;20224;-70
2022/03/21 03:05:17;;;;;;;18.80;11.17;;;7.50;95.80;;;;;;5032292;28;20310;-72
2022/03/21 03:07:43;;;;;;;19.90;10.43;;;7.40;95.80;;;;;;5016661;28;20209;-71
2022/03/21 03:10:09;;;;;;;17.87;10.63;;;7.40;95.70;;;;;;5029311;28;20258;-70
2022/03/21 03:12:34;;;;;;;19.70;10.90;;;7.40;95.70;;;;;;5032980;28;20220;-72
2022/03/21 03:15:00;;;;;;;15.87;11.27;;;7.40;95.70;;;;;;5031882;28;20217;-70
2022/03/21 03:17:26;;;;;;;17.90;9.80;;;7.40;95.70;;;;;;5027042;28;20236;-72
2022/03/21 03:19:51;;;;;;;18.43;10.63;;;7.30;95.50;;;;;;5035670;28;20244;-69
2022/03/21 03:22:18;;;;;;;17.90;9.70;;;7.30;95.60;;;;;;5004006;28;20220;-70
2022/03/21 03:24:45;;;;;;;13.60;9.50;;;7.30;95.60;;;;;;5038054;28;20228;-69
2022/03/21 03:27:11;;;;;;;15.40;9.80;;;7.30;95.50;;;;;;5014759;28;20449;-71
2022/03/21 03:29:36;;;;;;;20.07;10.60;;;7.30;95.50;;;;;;5030941;28;20815;-72
2022/03/21 03:32:05;;;;;;;13.80;9.27;;;7.20;95.40;;;;;;5042350;28;20695;-70
2022/03/21 03:34:33;;;;;;;15.20;9.90;;;7.20;95.50;;;;;;5031774;28;20227;-69
2022/03/21 03:36:59;;;;;;;18.13;10.00;;;7.20;95.40;;;;;;5017875;28;20553;-71
2022/03/21 03:39:28;;;;;;;16.47;9.43;;;7.20;95.50;;;;;;5028490;28;20459;-71
2022/03/21 03:41:54;;;;;;;17.27;10.27;;;7.20;95.60;;;;;;5033409;28;20471;-70
2022/03/21 03:44:22;;;;;;;15.77;10.00;;;7.20;95.50;;;;;;5036428;28;20541;-72
2022/03/21 03:46:48;;;;;;;16.77;8.60;;;7.00;95.40;;;;;;5035062;28;20224;-70
2022/03/21 03:49:14;;;;;;;16.10;9.40;;;7.00;95.40;;;;;;5008778;28;20435;-69
2022/03/21 03:51:40;;;;;;;15.23;8.90;;;7.00;95.50;;;;;;5027768;28;21018;-70
2022/03/21 03:54:05;;;;;;;17.97;10.70;;;7.00;95.60;;;;;;5022205;28;20239;-68
2022/03/21 03:56:31;;;;;;;15.50;9.73;;;7.00;95.60;;;;;;5030912;28;20307;-70
2022/03/21 03:58:57;;;;;;;17.03;9.53;;;7.00;95.60;;;;;;5033177;28;20224;-69
2022/03/21 04:01:22;;;;;;;18.60;9.37;;;7.00;95.60;;;;;;5032250;28;20217;-72
2022/03/21 04:03:48;;;;;;;16.10;9.27;;;6.90;95.50;;;;;;5057390;28;20284;-69
2022/03/21 04:06:18;;;;;;;16.63;9.37;;;6.90;95.60;;;;;;5026691;28;20674;-71
2022/03/21 04:08:48;;;;;;;15.87;9.53;;;6.90;95.40;;;;;;5022358;28;20220;-73
2022/03/21 04:11:14;;;;;;;17.40;8.87;;;6.90;95.40;;;;;;5017948;28;20974;-71
2022/03/21 04:13:41;;;;;;;14.10;9.17;;;6.90;95.50;;;;;;5031915;28;20538;-70
2022/03/21 04:16:07;;;;;;;12.90;8.17;;;6.80;95.40;;;;;;5036436;28;20535;-71
2022/03/21 04:18:33;;;;;;;18.63;9.17;;;6.80;95.40;;;;;;5033924;28;20486;-70
2022/03/21 04:20:59;;;;;;;17.13;9.57;;;6.80;95.40;;;;;;5032014;28;20481;-71
2022/03/21 04:23:25;;;;;;;19.00;9.20;;;6.80;95.50;;;;;;5021827;28;20467;-72
2022/03/21 04:25:50;;;;;;;15.00;8.80;;;6.80;95.40;;;;;;5029210;28;20228;-71
2022/03/21 04:28:17;;;;;;;13.57;8.87;;;6.80;95.40;;;;;;5030707;28;20246;-69
2022/03/21 04:30:43;;;;;;;12.90;9.00;;;6.70;95.30;;;;;;5035506;28;20224;-70
2022/03/21 04:33:10;;;;;;;15.60;8.60;;;6.70;95.30;;;;;;5029415;28;20464;-69
2022/03/21 04:35:40;;;;;;;12.20;8.43;;;6.70;95.40;;;;;;5034137;28;20453;-71
2022/03/21 04:38:13;;;;;;;18.00;9.50;;;6.60;95.40;;;;;;5030571;28;20471;-70
2022/03/21 04:40:50;;;;;;;16.43;9.47;;;6.60;95.40;;;;;;5023545;28;20506;-70
2022/03/21 04:43:18;;;;;;;15.37;9.17;;;6.60;95.50;;;;;;5027071;28;20470;-70
2022/03/21 04:45:45;;;;;;;14.37;8.30;;;6.60;95.50;;;;;;5032494;28;20866;-71
2022/03/21 04:48:11;;;;;;;14.63;9.37;;;6.50;95.40;;;;;;5022101;28;20477;-72
2022/03/21 04:50:38;;;;;;;13.73;8.83;;;6.40;95.50;;;;;;5051061;28;20434;-72
2022/03/21 04:53:06;;;;;;;17.67;10.03;;;6.50;95.60;;;;;;5028604;28;20521;-70
2022/03/21 04:55:32;;;;;;;15.33;9.53;;;6.50;95.50;;;;;;5026348;28;20454;-71
2022/03/21 04:57:59;;;;;;;13.57;8.40;;;6.50;95.40;;;;;;5017247;28;20473;-70
2022/03/21 05:00:25;;;;;;;14.20;8.70;;;6.50;95.70;;;;;;5017622;28;20471;-71
2022/03/21 05:02:51;;;;;;;13.83;8.50;;;6.50;95.40;;;;;;5036180;28;20485;-71
2022/03/21 05:05:17;;;;;;;16.23;9.53;;;6.50;95.50;;;;;;5034009;28;20227;-70
2022/03/21 05:07:52;;;;;;;14.60;8.33;;;6.50;95.60;;;;;;5031203;28;20468;-71
2022/03/21 05:10:18;;;;;;;19.87;10.37;;;6.50;95.60;;;;;;5021547;28;20239;-70
2022/03/21 05:12:44;;;;;;;14.40;9.27;;;6.40;95.30;;;;;;5050633;28;20466;-69
2022/03/21 05:15:10;;;;;;;24.40;10.40;;;6.40;95.40;;;;;;5024959;28;21004;-73
2022/03/21 05:17:36;;;;;;;17.50;10.13;;;6.40;95.50;;;;;;5036491;28;20224;-71
2022/03/21 05:20:09;;;;;;;22.50;12.27;;;6.40;95.40;;;;;;5023934;28;20652;-73
2022/03/21 05:22:35;;;;;;;16.30;9.80;;;6.30;95.30;;;;;;5039251;28;20447;-70
2022/03/21 05:35:59;;;;;;;19.13;11.37;;;6.30;95.40;;;;;;5035670;28;20467;-69
2022/03/21 05:38:27;;;;;;;19.43;11.90;;;6.20;95.30;;;;;;5027714;28;20538;-73
2022/03/21 05:40:58;;;;;;;22.80;12.07;;;6.20;95.40;;;;;;5048299;28;20542;-73
2022/03/21 05:43:24;;;;;;;22.07;12.90;;;6.20;95.30;;;;;;5046884;28;20461;-73
2022/03/21 05:45:51;;;;;;;20.77;13.03;;;6.20;95.40;;;;;;5030073;28;20459;-69
2022/03/21 05:51:02;;;;;;;18.93;11.57;;;6.10;95.40;;;;;;5046746;28;20449;-69
2022/03/21 05:53:28;;;;;;;14.87;11.07;;;6.10;95.50;;;;;;5021165;28;20871;-74
2022/03/21 05:55:55;;;;;;;17.30;10.17;;;6.10;95.50;;;;;;5032949;28;20222;-71
2022/03/21 05:58:21;;;;;;;13.20;8.63;;;6.00;95.40;;;;;;5024033;28;20211;-70
2022/03/21 06:00:47;;;;;;;15.50;8.50;;;6.00;95.60;;;;;;5029791;28;20466;-71
2022/03/21 06:03:12;;;;;;;16.93;10.00;;;6.00;95.50;;;;;;5026111;28;20480;-70
2022/03/21 06:05:40;;;;;;;18.03;10.00;;;6.00;95.50;;;;;;5026892;28;20220;-69
2022/03/21 06:08:07;;;;;;;15.60;9.10;;;6.00;95.50;;;;;;5028887;28;20288;-71
2022/03/21 06:10:33;;;;;;;13.13;8.73;;;6.00;95.60;;;;;;5026529;28;20460;-72
2022/03/21 06:13:05;;;;;;;16.60;8.83;;;6.00;95.60;;;;;;5025877;28;20459;-69
2022/03/21 06:15:32;;;;;;;15.70;8.80;;;6.00;95.60;;;;;;5034758;28;20211;-68
2022/03/21 06:17:59;;;;;;;12.70;8.00;;;6.00;95.60;;;;;;5029161;28;20545;-70
2022/03/21 06:20:26;;;;;;;14.93;9.10;;;6.00;95.70;;;;;;5020110;28;20460;-71
2022/03/21 06:22:52;;;;;;;13.50;8.77;;;6.00;95.80;;;;;;5041283;28;20481;-72
2022/03/21 06:25:18;;;;;;;14.93;8.07;;;6.00;95.80;;;;;;5020547;28;20460;-71
2022/03/21 06:27:44;;;;;;;11.00;7.67;;;6.00;95.80;;;;;;5022969;28;20232;-73
2022/03/21 06:30:10;;;;;;;17.07;8.87;;;6.00;95.80;;;;;;5008390;28;20227;-72
2022/03/21 06:32:37;;;;;;;20.80;9.47;;;6.00;96.00;;;;;;5033504;28;20229;-70
2022/03/21 06:35:04;;;;;;;13.07;8.43;;;6.00;95.90;;;;;;5030792;28;20501;-71
2022/03/21 06:37:32;;;;;;;21.13;8.63;;;6.00;96.00;;;;;;5031810;28;20503;-70
2022/03/21 06:39:58;;;;;;;14.47;8.40;;;6.10;96.10;;;;;;5038009;28;20487;-69
2022/03/21 06:42:24;;;;;;;17.23;8.70;;;6.10;96.10;;;;;;5041508;28;20485;-70
2022/03/21 06:44:50;;;;;;;18.30;9.27;;;6.10;96.20;;;;;;5032344;28;20259;-68
2022/03/21 06:47:19;;;;;;;11.10;7.87;;;6.10;96.20;;;;;;5052792;28;20285;-69
2022/03/21 06:49:45;;;;;;;16.23;10.10;;;6.10;96.20;;;;;;5024483;28;20903;-71
2022/03/21 06:52:11;;;;;;;12.70;9.10;;;6.10;96.20;;;;;;5038309;28;20538;-69
2022/03/21 06:54:38;;;;;;;14.87;8.57;;;6.10;96.40;;;;;;5035526;28;20288;-74
2022/03/21 06:57:04;;;;;;;18.90;8.57;;;6.20;96.40;;;;;;5043605;28;20513;-70
2022/03/21 06:59:31;;;;;;;15.33;8.00;;;6.20;96.40;;;;;;5041602;28;20465;-69
2022/03/21 07:01:57;;;;;;;15.53;8.97;;;6.20;96.50;;;;;;5031397;28;20463;-74
2022/03/21 07:04:23;;;;;;;12.20;8.63;;;6.20;96.50;;;;;;5023824;28;20466;-71
2022/03/21 07:06:50;;;;;;;13.00;9.03;;;6.20;96.50;;;;;;5031513;28;20320;-73
2022/03/21 07:09:16;;;;;;;11.80;8.63;;;6.30;96.70;;;;;;5040088;28;20906;-74
2022/03/21 07:11:42;;;;;;;16.83;9.10;;;6.30;96.70;;;;;;5043963;28;20455;-73
2022/03/21 07:14:07;;;;;;;16.70;9.83;;;6.30;96.70;;;;;;5031355;28;20481;-69
2022/03/21 07:16:33;;;;;;;12.43;8.40;;;6.40;96.90;;;;;;5037652;28;20319;-69
2022/03/21 07:18:59;;;;;;;18.50;8.73;;;6.40;96.90;;;;;;5030297;28;20227;-71
2022/03/21 07:21:24;;;;;;;16.50;8.80;;;6.40;97.00;;;;;;5031819;28;20282;-71
2022/03/21 07:23:50;;;;;;;12.27;7.93;;;6.50;96.80;;;;;;5032489;28;20297;-72
2022/03/21 07:26:16;;;;;;;13.10;8.13;;;6.50;97.00;;;;;;5041876;28;20224;-69
2022/03/21 07:28:41;;;;;;;11.50;7.93;;;6.50;96.90;;;;;;5038097;28;20224;-70
2022/03/21 07:31:09;;;;;;;13.30;8.37;;;6.60;97.10;;;;;;5034916;28;20224;-69
2022/03/21 07:33:38;;;;;;;12.00;8.30;;;6.60;97.20;;;;;;5028757;28;20235;-69
2022/03/21 07:36:04;;;;;;;15.67;8.10;;;6.70;97.10;;;;;;5048406;28;20474;-70
2022/03/21 07:38:31;;;;;;;20.70;8.97;;;6.70;97.30;;;;;;5031399;28;20461;-69
2022/03/21 07:40:57;;;;;;;15.70;9.37;;;6.80;97.20;;;;;;5028334;28;20451;-70
2022/03/21 07:43:23;;;;;;;16.47;9.10;;;6.80;97.50;;;;;;5034098;28;20464;-73
2022/03/21 07:48:33;;;;;;;16.57;10.10;;;6.90;97.50;;;;;;5033034;28;22517;-69
2022/03/21 07:50:58;;;;;;;12.00;8.60;;;7.00;97.40;;;;;;5006221;28;20474;-70
2022/03/21 07:53:24;;;;;;;16.20;9.67;;;7.10;97.40;;;;;;5026520;28;20330;-72
2022/03/21 07:55:50;;;;;;;14.17;9.07;;;7.10;97.40;;;;;;5025766;28;20204;-71
2022/03/21 07:58:16;;;;;;;18.80;9.20;;;7.20;97.60;;;;;;5030165;28;20274;-70
2022/03/21 08:00:42;;;;;;;17.10;9.73;;;7.20;97.50;;;;;;5048922;28;20223;-71
2022/03/21 08:03:16;;;;;;;17.13;9.53;;;7.20;97.80;;;;;;5018270;28;20240;-74
2022/03/21 08:05:42;;;;;;;14.53;8.27;;;7.30;97.80;;;;;;5024188;28;20315;-73
2022/03/21 08:08:08;;;;;;;14.97;8.73;;;7.40;97.90;;;;;;5032091;28;20458;-74
2022/03/21 08:10:34;;;;;;;13.00;7.67;;;7.40;97.70;;;;;;5013174;28;20457;-70
2022/03/21 08:13:00;;;;;;;28.20;10.00;;;7.50;97.80;;;;;;5034824;28;20470;-73
2022/03/21 08:15:28;;;;;;;16.50;10.20;;;7.60;97.80;;;;;;5018124;28;20450;-69
2022/03/21 08:18:03;;;;;;;14.10;8.50;;;7.60;97.90;;;;;;5027194;28;20243;-74
2022/03/21 08:20:35;;;;;;;13.83;8.97;;;7.60;97.50;;;;;;5038456;28;20458;-70
2022/03/21 08:23:03;;;;;;;14.93;8.27;;;7.70;97.80;;;;;;5030051;28;21049;-73
2022/03/21 08:25:29;;;;;;;20.03;9.00;;;7.80;97.90;;;;;;5015266;28;21123;-72
2022/03/21 08:27:55;;;;;;;16.70;8.80;;;7.80;97.30;;;;;;5033309;28;20459;-72
2022/03/21 08:30:20;;;;;;;15.43;9.00;;;7.90;97.00;;;;;;5014946;28;20490;-72
2022/03/21 08:32:47;;;;;;;16.00;9.20;;;8.00;97.00;;;;;;5026986;28;20475;-73
2022/03/21 08:35:13;;;;;;;16.30;9.50;;;8.00;97.20;;;;;;5029055;28;20216;-71
2022/03/21 08:37:39;;;;;;;15.80;10.40;;;8.10;97.30;;;;;;5027385;28;20506;-71
2022/03/21 08:40:07;;;;;;;12.67;8.13;;;8.20;97.10;;;;;;5023452;28;20475;-74
2022/03/21 08:42:33;;;;;;;17.10;10.60;;;8.30;97.50;;;;;;5030886;28;21462;-72
2022/03/21 08:44:59;;;;;;;14.93;9.57;;;8.30;97.50;;;;;;5031419;28;20459;-72
2022/03/21 08:47:25;;;;;;;16.60;10.17;;;8.50;97.80;;;;;;5029903;28;20904;-72
2022/03/21 08:49:51;;;;;;;12.90;8.10;;;8.60;97.60;;;;;;5017386;28;20243;-70
2022/03/21 08:52:18;;;;;;;13.60;9.13;;;8.70;97.70;;;;;;5028294;28;20461;-70
2022/03/21 08:54:44;;;;;;;14.27;10.40;;;8.70;97.60;;;;;;5025193;28;20696;-71
2022/03/21 08:57:10;;;;;;;14.53;9.50;;;8.80;97.80;;;;;;5033355;28;20466;-72
2022/03/21 08:59:36;;;;;;;13.17;9.73;;;8.80;97.40;;;;;;5030731;28;20220;-72
2022/03/21 09:02:03;;;;;;;12.83;8.77;;;8.80;97.50;;;;;;5033873;28;20455;-70
2022/03/21 09:04:28;;;;;;;14.00;8.20;;;8.90;97.90;;;;;;5031089;28;20307;-70
2022/03/21 09:06:54;;;;;;;13.93;9.30;;;9.00;97.90;;;;;;5032560;28;20594;-72
2022/03/21 09:09:21;;;;;;;17.03;9.10;;;9.10;97.70;;;;;;5033325;28;20649;-74
2022/03/21 09:11:47;;;;;;;15.07;10.20;;;9.10;97.70;;;;;;5032745;28;20224;-73
2022/03/21 09:14:13;;;;;;;14.63;10.73;;;9.10;97.80;;;;;;5038727;28;20484;-70
2022/03/21 09:16:39;;;;;;;22.90;10.50;;;9.20;98.10;;;;;;5023712;28;20614;-71
2022/03/21 09:19:06;;;;;;;17.80;9.90;;;9.30;97.60;;;;;;5033020;28;20540;-73
2022/03/21 09:21:31;;;;;;;18.93;10.10;;;9.40;98.00;;;;;;5041120;28;20458;-70
2022/03/21 09:23:57;;;;;;;14.70;10.17;;;9.40;97.50;;;;;;5035511;28;20498;-73
2022/03/21 09:26:23;;;;;;;21.33;11.47;;;9.50;97.80;;;;;;5025193;28;20204;-71
2022/03/21 09:28:49;;;;;;;15.87;10.40;;;9.60;97.80;;;;;;5024797;28;20221;-73
2022/03/21 09:31:16;;;;;;;16.90;9.57;;;9.60;97.50;;;;;;5042852;28;20227;-69
2022/03/21 09:33:42;;;;;;;16.53;10.20;;;9.70;97.80;;;;;;5028432;28;20248;-73
2022/03/21 09:36:09;;;;;;;16.67;10.70;;;9.80;98.00;;;;;;5028824;28;20483;-70
2022/03/21 09:38:36;;;;;;;16.27;9.80;;;9.90;97.40;;;;;;5026429;28;20451;-71
2022/03/21 09:41:03;;;;;;;20.30;10.63;;;10.00;97.00;;;;;;5017066;28;20479;-71
2022/03/21 09:43:30;;;;;;;16.23;10.10;;;10.10;96.70;;;;;;5029881;28;20470;-71
2022/03/21 09:45:57;;;;;;;16.67;9.10;;;10.20;97.00;;;;;;5034409;28;20477;-74
2022/03/21 09:48:26;;;;;;;16.57;10.13;;;10.30;96.90;;;;;;5029367;28;20451;-72
2022/03/21 09:50:52;;;;;;;14.70;10.00;;;10.40;97.00;;;;;;5021319;28;20550;-71
2022/03/21 09:53:19;;;;;;;17.47;10.83;;;10.50;97.20;;;;;;5020554;28;20561;-70
2022/03/21 09:55:46;;;;;;;16.63;10.33;;;10.60;96.60;;;;;;5032814;28;20443;-72
2022/03/21 09:58:12;;;;;;;15.67;9.90;;;10.70;96.60;;;;;;5032758;28;20455;-71
2022/03/21 10:00:42;;;;;;;20.43;11.70;;;10.80;96.80;;;;;;5040052;28;20450;-75
2022/03/21 10:03:09;;;;;;;18.93;12.10;;;10.90;96.00;;;;;;5025581;28;20517;-73
2022/03/21 10:05:43;;;;;;;18.40;10.70;;;10.90;96.20;;;;;;5032795;28;20454;-71
2022/03/21 10:08:12;;;;;;;16.67;10.37;;;11.00;96.70;;;;;;5027827;28;20541;-73
2022/03/21 10:10:38;;;;;;;16.50;10.70;;;11.10;96.30;;;;;;5018236;28;20534;-73
2022/03/21 10:13:09;;;;;;;16.70;10.93;;;11.30;96.40;;;;;;5037005;28;20461;-71
2022/03/21 10:15:36;;;;;;;18.70;11.93;;;11.40;96.60;;;;;;5031364;28;20499;-72
2022/03/21 10:18:09;;;;;;;16.27;10.87;;;11.50;96.60;;;;;;5028837;28;20506;-70
2022/03/21 10:20:36;;;;;;;18.10;11.70;;;11.60;95.90;;;;;;5033138;28;20470;-74
2022/03/21 10:23:19;;;;;;;20.10;10.90;;;11.70;96.20;;;;;;5018542;28;20506;-73
2022/03/21 10:25:46;;;;;;;19.10;10.67;;;11.70;96.60;;;;;;5024504;28;20463;-74
2022/03/21 10:28:34;;;;;;;16.83;11.00;;;11.70;96.70;;;;;;5032441;28;20476;-70
2022/03/21 10:31:01;;;;;;;16.80;11.07;;;11.90;96.80;;;;;;5034752;28;20470;-70
2022/03/21 10:33:27;;;;;;;16.33;11.97;;;12.10;96.80;;;;;;5032177;28;20500;-69
2022/03/21 10:35:53;;;;;;;20.30;11.40;;;12.30;96.80;;;;;;5037099;28;20483;-69
2022/03/21 10:38:33;;;;;;;17.70;12.60;;;12.40;97.00;;;;;;5029385;28;20212;-72
2022/03/21 10:41:06;;;;;;;19.40;11.67;;;12.50;96.70;;;;;;5027567;28;20281;-71
2022/03/21 10:43:32;;;;;;;18.27;12.70;;;12.50;96.30;;;;;;5029981;28;20452;-70
2022/03/21 10:45:58;;;;;;;23.27;13.25;;;12.60;95.70;;;;;;4966506;28;1189225;-70
2022/03/21 10:48:29;;;;;;;16.00;11.97;;;12.60;95.50;;;;;;5031537;28;20227;-73
2022/03/21 10:50:57;;;;;;;19.40;13.23;;;12.60;95.70;;;;;;5033975;28;20222;-71
2022/03/21 10:53:36;;;;;;;15.73;12.07;;;12.70;95.90;;;;;;5031600;28;20458;-68
2022/03/21 10:56:09;;;;;;;19.20;13.13;;;12.70;95.80;;;;;;5023263;28;21010;-73
2022/03/21 10:58:47;;;;;;;19.53;11.13;;;12.80;95.70;;;;;;5022674;28;20512;-70
2022/03/21 11:01:26;;;;;;;17.40;13.30;;;12.90;96.20;;;;;;5020782;28;20972;-75
2022/03/21 11:03:56;;;;;;;17.17;11.50;;;13.10;96.40;;;;;;5027858;28;20446;-70
2022/03/21 11:06:22;;;;;;;18.47;12.53;;;13.30;96.20;;;;;;5030620;28;20879;-73
2022/03/21 11:08:51;;;;;;;19.57;12.47;;;13.30;96.40;;;;;;5045445;28;20447;-71
2022/03/21 11:11:17;;;;;;;20.77;12.20;;;13.50;96.30;;;;;;5033774;28;20740;-69
2022/03/21 11:13:44;;;;;;;17.27;11.90;;;13.60;96.50;;;;;;5031283;28;20470;-67
2022/03/21 11:16:10;;;;;;;17.17;11.40;;;13.80;96.20;;;;;;5038086;28;20471;-68
2022/03/21 11:18:36;;;;;;;14.83;10.50;;;14.00;96.40;;;;;;5009502;28;20480;-73
2022/03/21 11:21:02;;;;;;;17.33;11.90;;;14.10;96.50;;;;;;5031757;28;20262;-68
2022/03/21 11:23:28;;;;;;;16.90;11.67;;;14.20;96.50;;;;;;5029145;28;20294;-70
2022/03/21 11:26:02;;;;;;;15.57;11.67;;;14.30;96.50;;;;;;5030012;28;20220;-70
2022/03/21 11:28:46;;;;;;;16.77;11.87;;;14.40;96.00;;;;;;5030961;28;20446;-69
2022/03/21 11:31:44;;;;;;;14.70;11.17;;;14.60;95.70;;;;;;5029899;28;20522;-69
2022/03/21 11:34:40;;;;;;;17.20;12.27;;;14.60;95.90;;;;;;5004381;28;20989;-69
2022/03/21 11:37:22;;;;;;;16.23;11.10;;;14.70;96.10;;;;;;5026544;28;20544;-68
2022/03/21 11:39:48;;;;;;;19.47;12.03;;;14.90;95.80;;;;;;5022612;28;20503;-68
2022/03/21 11:42:23;;;;;;;16.80;11.80;;;14.90;95.70;;;;;;5032220;28;20978;-66
2022/03/21 11:45:24;;;;;;;17.80;12.47;;;15.00;95.80;;;;;;5032235;28;20679;-70
2022/03/21 11:48:10;;;;;;;17.57;10.67;;;15.10;95.60;;;;;;5011025;28;20552;-69
2022/03/21 11:50:36;;;;;;;19.07;13.13;;;15.30;95.10;;;;;;5013874;28;20843;-71
2022/03/21 11:53:08;;;;;;;15.70;12.03;;;15.30;94.80;;;;;;5031174;28;20458;-72
2022/03/21 11:55:40;;;;;;;19.37;13.03;;;15.20;94.90;;;;;;5021896;28;20228;-66
2022/03/21 11:58:24;;;;;;;18.80;13.60;;;15.30;94.50;;;;;;5023553;28;20532;-68
2022/03/21 12:01:02;;;;;;;18.43;12.80;;;15.40;94.70;;;;;;5031268;28;20478;-66
2022/03/21 12:03:27;;;;;;;22.97;12.33;;;15.40;95.20;;;;;;5026863;28;20462;-66
2022/03/21 12:05:53;;;;;;;15.80;11.73;;;15.20;94.30;;;;;;5025972;28;20908;-68
2022/03/21 12:08:43;;;;;;;14.60;12.07;;;15.20;94.60;;;;;;5024942;28;20220;-70
2022/03/21 12:11:09;;;;;;;18.90;11.87;;;15.20;94.70;;;;;;5036835;28;20647;-68
2022/03/21 12:13:45;;;;;;;23.57;13.27;;;15.30;95.00;;;;;;5033510;28;20993;-68
2022/03/21 12:16:18;;;;;;;17.30;12.13;;;15.40;95.10;;;;;;5025382;28;20496;-66
2022/03/21 12:19:03;;;;;;;17.00;12.30;;;15.50;95.10;;;;;;5027714;28;20592;-68
2022/03/21 12:21:28;;;;;;;15.43;10.80;;;15.60;94.90;;;;;;5034859;28;20465;-68
2022/03/21 12:24:15;;;;;;;13.93;10.33;;;15.60;94.80;;;;;;5024295;28;20836;-72
2022/03/21 12:26:48;;;;;;;19.70;12.87;;;15.70;93.80;;;;;;5025271;28;20248;-70
2022/03/21 12:29:33;;;;;;;19.10;13.70;;;15.60;94.50;;;;;;5036315;28;20532;-71
2022/03/21 12:32:25;;;;;;;17.77;12.23;;;15.60;93.40;;;;;;5024821;28;20456;-68
2022/03/21 12:34:54;;;;;;;18.43;12.33;;;15.50;93.50;;;;;;5032489;28;20454;-71
2022/03/21 12:37:38;;;;;;;19.83;11.90;;;15.50;93.90;;;;;;5031349;28;20551;-68
2022/03/21 12:40:09;;;;;;;17.83;13.67;;;15.70;94.00;;;;;;5012751;28;20459;-69
2022/03/21 12:42:41;;;;;;;18.60;13.10;;;15.70;94.20;;;;;;5036227;28;20463;-71
2022/03/21 12:45:07;;;;;;;18.63;12.00;;;15.80;94.60;;;;;;5019520;28;20455;-70
2022/03/21 12:47:35;;;;;;;19.83;12.40;;;15.90;94.30;;;;;;5016777;28;20467;-71
2022/03/21 12:50:01;;;;;;;20.20;13.30;;;16.10;94.20;;;;;;5031648;28;20228;-69
2022/03/21 12:52:28;;;;;;;18.27;12.73;;;16.20;94.20;;;;;;5027528;28;20462;-72
2022/03/21 12:54:55;;;;;;;23.03;13.87;;;16.30;94.40;;;;;;5030786;28;20792;-67
2022/03/21 12:57:20;;;;;;;22.30;14.00;;;16.30;93.50;;;;;;5028919;28;20491;-72
2022/03/21 12:59:46;;;;;;;19.80;12.20;;;16.30;93.50;;;;;;5035203;28;20500;-68
2022/03/21 13:02:28;;;;;;;21.17;13.40;;;16.30;93.90;;;;;;5020355;28;20282;-68